sensor_id;sensor_type;location;lat;lon;timestamp;P1;durP1;ratioP1;P2;durP2;ratioP2
14209;SDS011;7188;56.070;12.698;2024-03-02T00:02:24;94.30;;;45.17;;
14209;SDS011;7188;56.070;12.698;2024-03-02T00:05:12;100.20;;;47.50;;
14209;SDS011;7188;56.070;12.698;2024-03-02T00:07:54;96.77;;;45.63;;
14209;SDS011;7188;56.070;12.698;2024-03-02T00:10:37;87.27;;;45.23;;
14209;SDS011;7188;56.070;12.698;2024-03-02T00:16:44;92.93;;;44.80;;
14209;SDS011;7188;56.070;12.698;2024-03-02T00:19:09;92.13;;;46.30;;
14209;SDS011;7188;56.070;12.698;2024-03-02T00:21:35;100.53;;;49.70;;
14209;SDS011;7188;56.070;12.698;2024-03-02T00:24:01;82.57;;;43.67;;
14209;SDS011;7188;56.070;12.698;2024-03-02T00:26:44;88.23;;;44.90;;
14209;SDS011;7188;56.070;12.698;2024-03-02T00:29:10;95.07;;;47.20;;
14209;SDS011;7188;56.070;12.698;2024-03-02T00:31:38;96.90;;;47.43;;
14209;SDS011;7188;56.070;12.698;2024-03-02T00:34:05;90.17;;;42.83;;
14209;SDS011;7188;56.070;12.698;2024-03-02T00:36:31;89.00;;;45.47;;
14209;SDS011;7188;56.070;12.698;2024-03-02T00:38:56;101.20;;;48.53;;
14209;SDS011;7188;56.070;12.698;2024-03-02T00:44:01;79.27;;;42.37;;
14209;SDS011;7188;56.070;12.698;2024-03-02T00:49:04;87.60;;;43.23;;
14209;SDS011;7188;56.070;12.698;2024-03-02T00:51:31;81.27;;;42.27;;
14209;SDS011;7188;56.070;12.698;2024-03-02T00:54:00;82.93;;;42.80;;
14209;SDS011;7188;56.070;12.698;2024-03-02T00:56:41;85.07;;;44.27;;
14209;SDS011;7188;56.070;12.698;2024-03-02T00:59:07;75.27;;;38.37;;
14209;SDS011;7188;56.070;12.698;2024-03-02T01:01:35;78.20;;;40.83;;
14209;SDS011;7188;56.070;12.698;2024-03-02T01:04:00;85.93;;;46.07;;
14209;SDS011;7188;56.070;12.698;2024-03-02T01:06:29;85.23;;;44.97;;
14209;SDS011;7188;56.070;12.698;2024-03-02T01:08:55;91.33;;;47.63;;
14209;SDS011;7188;56.070;12.698;2024-03-02T01:11:21;89.73;;;44.33;;
14209;SDS011;7188;56.070;12.698;2024-03-02T01:14:05;94.93;;;46.50;;
14209;SDS011;7188;56.070;12.698;2024-03-02T01:16:31;87.10;;;46.53;;
14209;SDS011;7188;56.070;12.698;2024-03-02T01:18:56;98.83;;;47.13;;
14209;SDS011;7188;56.070;12.698;2024-03-02T01:24:28;99.80;;;46.50;;
14209;SDS011;7188;56.070;12.698;2024-03-02T01:26:54;88.87;;;43.10;;
14209;SDS011;7188;56.070;12.698;2024-03-02T01:29:21;93.53;;;45.33;;
14209;SDS011;7188;56.070;12.698;2024-03-02T01:31:46;97.67;;;46.73;;
14209;SDS011;7188;56.070;12.698;2024-03-02T01:34:12;90.40;;;46.27;;
14209;SDS011;7188;56.070;12.698;2024-03-02T01:36:38;100.87;;;47.93;;
14209;SDS011;7188;56.070;12.698;2024-03-02T01:39:04;96.13;;;47.97;;
14209;SDS011;7188;56.070;12.698;2024-03-02T01:41:33;98.77;;;46.70;;
14209;SDS011;7188;56.070;12.698;2024-03-02T01:43:59;97.90;;;47.37;;
14209;SDS011;7188;56.070;12.698;2024-03-02T01:46:25;98.00;;;47.63;;
14209;SDS011;7188;56.070;12.698;2024-03-02T01:48:50;106.07;;;48.53;;
14209;SDS011;7188;56.070;12.698;2024-03-02T01:51:16;111.63;;;51.77;;
14209;SDS011;7188;56.070;12.698;2024-03-02T01:53:41;101.13;;;48.60;;
14209;SDS011;7188;56.070;12.698;2024-03-02T01:56:07;117.60;;;50.30;;
14209;SDS011;7188;56.070;12.698;2024-03-02T01:58:33;110.17;;;49.87;;
14209;SDS011;7188;56.070;12.698;2024-03-02T02:00:58;112.73;;;51.40;;
14209;SDS011;7188;56.070;12.698;2024-03-02T02:03:24;119.00;;;52.33;;
14209;SDS011;7188;56.070;12.698;2024-03-02T02:09:12;109.97;;;52.50;;
14209;SDS011;7188;56.070;12.698;2024-03-02T02:11:38;112.80;;;51.97;;
14209;SDS011;7188;56.070;12.698;2024-03-02T02:14:04;112.90;;;52.63;;
14209;SDS011;7188;56.070;12.698;2024-03-02T02:16:31;120.70;;;54.07;;
14209;SDS011;7188;56.070;12.698;2024-03-02T02:18:56;117.93;;;55.10;;
14209;SDS011;7188;56.070;12.698;2024-03-02T02:21:22;117.10;;;56.10;;
14209;SDS011;7188;56.070;12.698;2024-03-02T02:23:48;118.27;;;53.10;;
14209;SDS011;7188;56.070;12.698;2024-03-02T02:26:15;120.00;;;53.37;;
14209;SDS011;7188;56.070;12.698;2024-03-02T02:28:40;116.37;;;53.93;;
14209;SDS011;7188;56.070;12.698;2024-03-02T02:31:12;129.40;;;55.83;;
14209;SDS011;7188;56.070;12.698;2024-03-02T02:33:41;133.30;;;54.90;;
14209;SDS011;7188;56.070;12.698;2024-03-02T02:36:07;132.43;;;57.63;;
14209;SDS011;7188;56.070;12.698;2024-03-02T02:38:35;131.33;;;57.63;;
14209;SDS011;7188;56.070;12.698;2024-03-02T02:41:04;126.53;;;57.73;;
14209;SDS011;7188;56.070;12.698;2024-03-02T02:43:29;127.90;;;57.10;;
14209;SDS011;7188;56.070;12.698;2024-03-02T02:45:55;132.53;;;55.23;;
14209;SDS011;7188;56.070;12.698;2024-03-02T02:48:21;132.63;;;56.53;;
14209;SDS011;7188;56.070;12.698;2024-03-02T02:50:47;127.13;;;58.47;;
14209;SDS011;7188;56.070;12.698;2024-03-02T02:53:12;129.10;;;58.33;;
14209;SDS011;7188;56.070;12.698;2024-03-02T02:55:39;129.03;;;58.43;;
14209;SDS011;7188;56.070;12.698;2024-03-02T02:58:08;119.03;;;54.87;;
14209;SDS011;7188;56.070;12.698;2024-03-02T03:00:34;118.27;;;53.13;;
14209;SDS011;7188;56.070;12.698;2024-03-02T03:03:01;119.40;;;58.10;;
14209;SDS011;7188;56.070;12.698;2024-03-02T03:05:27;120.87;;;57.20;;
14209;SDS011;7188;56.070;12.698;2024-03-02T03:07:53;128.60;;;56.67;;
14209;SDS011;7188;56.070;12.698;2024-03-02T03:10:18;115.17;;;54.83;;
14209;SDS011;7188;56.070;12.698;2024-03-02T03:12:47;118.67;;;54.77;;
14209;SDS011;7188;56.070;12.698;2024-03-02T03:15:12;111.47;;;54.40;;
14209;SDS011;7188;56.070;12.698;2024-03-02T03:17:39;130.67;;;57.27;;
14209;SDS011;7188;56.070;12.698;2024-03-02T03:20:05;117.77;;;53.93;;
14209;SDS011;7188;56.070;12.698;2024-03-02T03:22:34;122.73;;;55.37;;
14209;SDS011;7188;56.070;12.698;2024-03-02T03:25:00;118.27;;;54.73;;
14209;SDS011;7188;56.070;12.698;2024-03-02T03:27:26;118.17;;;52.70;;
14209;SDS011;7188;56.070;12.698;2024-03-02T03:29:52;108.60;;;53.00;;
14209;SDS011;7188;56.070;12.698;2024-03-02T03:32:19;130.27;;;58.33;;
14209;SDS011;7188;56.070;12.698;2024-03-02T03:34:44;112.73;;;52.47;;
14209;SDS011;7188;56.070;12.698;2024-03-02T03:37:10;109.37;;;51.90;;
14209;SDS011;7188;56.070;12.698;2024-03-02T03:39:36;120.20;;;56.60;;
14209;SDS011;7188;56.070;12.698;2024-03-02T03:42:02;109.43;;;52.50;;
14209;SDS011;7188;56.070;12.698;2024-03-02T03:44:28;120.17;;;57.57;;
14209;SDS011;7188;56.070;12.698;2024-03-02T03:46:54;121.13;;;57.60;;
14209;SDS011;7188;56.070;12.698;2024-03-02T03:49:19;120.90;;;56.37;;
14209;SDS011;7188;56.070;12.698;2024-03-02T03:51:45;113.90;;;56.37;;
14209;SDS011;7188;56.070;12.698;2024-03-02T03:54:11;118.53;;;55.67;;
14209;SDS011;7188;56.070;12.698;2024-03-02T03:56:37;113.00;;;54.73;;
14209;SDS011;7188;56.070;12.698;2024-03-02T03:59:03;107.27;;;55.23;;
14209;SDS011;7188;56.070;12.698;2024-03-02T04:01:29;111.60;;;54.03;;
14209;SDS011;7188;56.070;12.698;2024-03-02T04:03:56;112.37;;;55.27;;
14209;SDS011;7188;56.070;12.698;2024-03-02T04:06:22;109.47;;;55.90;;
14209;SDS011;7188;56.070;12.698;2024-03-02T04:08:48;114.23;;;57.33;;
14209;SDS011;7188;56.070;12.698;2024-03-02T04:11:13;105.07;;;51.20;;
14209;SDS011;7188;56.070;12.698;2024-03-02T04:13:45;106.13;;;51.17;;
14209;SDS011;7188;56.070;12.698;2024-03-02T04:16:11;106.33;;;54.73;;
14209;SDS011;7188;56.070;12.698;2024-03-02T04:18:37;98.93;;;50.47;;
14209;SDS011;7188;56.070;12.698;2024-03-02T04:21:04;98.33;;;51.83;;
14209;SDS011;7188;56.070;12.698;2024-03-02T04:23:30;107.53;;;55.40;;
14209;SDS011;7188;56.070;12.698;2024-03-02T04:25:55;107.50;;;55.23;;
14209;SDS011;7188;56.070;12.698;2024-03-02T04:28:21;107.33;;;56.27;;
14209;SDS011;7188;56.070;12.698;2024-03-02T04:30:47;114.80;;;58.67;;
14209;SDS011;7188;56.070;12.698;2024-03-02T04:33:12;115.53;;;57.40;;
14209;SDS011;7188;56.070;12.698;2024-03-02T04:35:38;119.77;;;61.67;;
14209;SDS011;7188;56.070;12.698;2024-03-02T04:38:04;126.73;;;63.47;;
14209;SDS011;7188;56.070;12.698;2024-03-02T04:40:30;125.93;;;62.27;;
14209;SDS011;7188;56.070;12.698;2024-03-02T04:42:55;125.83;;;63.40;;
14209;SDS011;7188;56.070;12.698;2024-03-02T04:45:21;135.03;;;65.83;;
14209;SDS011;7188;56.070;12.698;2024-03-02T04:47:46;132.50;;;64.30;;
14209;SDS011;7188;56.070;12.698;2024-03-02T04:50:12;122.50;;;63.77;;
14209;SDS011;7188;56.070;12.698;2024-03-02T04:52:38;126.53;;;64.43;;
14209;SDS011;7188;56.070;12.698;2024-03-02T04:55:04;129.27;;;66.83;;
14209;SDS011;7188;56.070;12.698;2024-03-02T04:57:50;130.27;;;67.83;;
14209;SDS011;7188;56.070;12.698;2024-03-02T05:00:16;131.00;;;66.43;;
14209;SDS011;7188;56.070;12.698;2024-03-02T05:02:45;129.07;;;65.40;;
14209;SDS011;7188;56.070;12.698;2024-03-02T05:05:10;140.30;;;67.20;;
14209;SDS011;7188;56.070;12.698;2024-03-02T05:07:36;144.67;;;70.50;;
14209;SDS011;7188;56.070;12.698;2024-03-02T05:12:50;138.97;;;67.93;;
14209;SDS011;7188;56.070;12.698;2024-03-02T05:15:24;139.40;;;70.83;;
14209;SDS011;7188;56.070;12.698;2024-03-02T05:17:50;143.63;;;67.73;;
14209;SDS011;7188;56.070;12.698;2024-03-02T05:20:16;143.57;;;69.43;;
14209;SDS011;7188;56.070;12.698;2024-03-02T05:22:51;140.63;;;68.20;;
14209;SDS011;7188;56.070;12.698;2024-03-02T05:25:17;143.40;;;70.33;;
14209;SDS011;7188;56.070;12.698;2024-03-02T05:27:43;136.30;;;68.10;;
14209;SDS011;7188;56.070;12.698;2024-03-02T05:30:09;143.33;;;67.53;;
14209;SDS011;7188;56.070;12.698;2024-03-02T05:32:35;137.83;;;70.33;;
14209;SDS011;7188;56.070;12.698;2024-03-02T05:35:01;144.63;;;71.50;;
14209;SDS011;7188;56.070;12.698;2024-03-02T05:37:27;144.63;;;70.60;;
14209;SDS011;7188;56.070;12.698;2024-03-02T05:39:53;148.10;;;70.20;;
14209;SDS011;7188;56.070;12.698;2024-03-02T05:42:19;139.60;;;69.30;;
14209;SDS011;7188;56.070;12.698;2024-03-02T05:44:44;141.27;;;69.00;;
14209;SDS011;7188;56.070;12.698;2024-03-02T05:47:13;146.60;;;67.63;;
14209;SDS011;7188;56.070;12.698;2024-03-02T05:49:39;141.07;;;68.03;;
14209;SDS011;7188;56.070;12.698;2024-03-02T05:52:04;149.07;;;69.17;;
14209;SDS011;7188;56.070;12.698;2024-03-02T05:54:30;145.67;;;70.93;;
14209;SDS011;7188;56.070;12.698;2024-03-02T05:56:56;148.50;;;73.17;;
14209;SDS011;7188;56.070;12.698;2024-03-02T05:59:21;143.87;;;68.80;;
14209;SDS011;7188;56.070;12.698;2024-03-02T06:01:47;143.80;;;71.00;;
14209;SDS011;7188;56.070;12.698;2024-03-02T06:04:15;133.40;;;67.57;;
14209;SDS011;7188;56.070;12.698;2024-03-02T06:06:41;140.80;;;68.50;;
14209;SDS011;7188;56.070;12.698;2024-03-02T06:09:07;147.53;;;70.43;;
14209;SDS011;7188;56.070;12.698;2024-03-02T06:11:33;155.20;;;73.53;;
14209;SDS011;7188;56.070;12.698;2024-03-02T06:14:00;144.97;;;72.03;;
14209;SDS011;7188;56.070;12.698;2024-03-02T06:16:26;139.97;;;69.07;;
14209;SDS011;7188;56.070;12.698;2024-03-02T06:18:51;146.47;;;70.87;;
14209;SDS011;7188;56.070;12.698;2024-03-02T06:21:18;150.30;;;70.00;;
14209;SDS011;7188;56.070;12.698;2024-03-02T06:23:44;148.93;;;72.77;;
14209;SDS011;7188;56.070;12.698;2024-03-02T06:26:10;150.63;;;71.93;;
14209;SDS011;7188;56.070;12.698;2024-03-02T06:28:36;151.40;;;73.30;;
14209;SDS011;7188;56.070;12.698;2024-03-02T06:31:01;153.37;;;72.30;;
14209;SDS011;7188;56.070;12.698;2024-03-02T06:33:27;155.20;;;74.00;;
14209;SDS011;7188;56.070;12.698;2024-03-02T06:35:53;145.30;;;69.23;;
14209;SDS011;7188;56.070;12.698;2024-03-02T06:38:19;158.90;;;71.87;;
14209;SDS011;7188;56.070;12.698;2024-03-02T06:40:45;152.90;;;71.43;;
14209;SDS011;7188;56.070;12.698;2024-03-02T06:43:10;156.83;;;72.97;;
14209;SDS011;7188;56.070;12.698;2024-03-02T06:45:36;153.10;;;73.47;;
14209;SDS011;7188;56.070;12.698;2024-03-02T06:48:02;152.27;;;74.37;;
14209;SDS011;7188;56.070;12.698;2024-03-02T06:50:27;152.67;;;72.50;;
14209;SDS011;7188;56.070;12.698;2024-03-02T06:52:53;148.47;;;70.63;;
14209;SDS011;7188;56.070;12.698;2024-03-02T06:55:21;150.40;;;73.03;;
14209;SDS011;7188;56.070;12.698;2024-03-02T06:57:46;152.80;;;72.77;;
14209;SDS011;7188;56.070;12.698;2024-03-02T07:00:12;144.63;;;70.73;;
14209;SDS011;7188;56.070;12.698;2024-03-02T07:02:39;138.77;;;65.33;;
14209;SDS011;7188;56.070;12.698;2024-03-02T07:05:07;148.43;;;74.87;;
14209;SDS011;7188;56.070;12.698;2024-03-02T07:07:33;138.90;;;71.20;;
14209;SDS011;7188;56.070;12.698;2024-03-02T07:10:00;131.70;;;66.90;;
14209;SDS011;7188;56.070;12.698;2024-03-02T07:12:26;129.93;;;64.37;;
14209;SDS011;7188;56.070;12.698;2024-03-02T07:14:52;127.40;;;64.20;;
14209;SDS011;7188;56.070;12.698;2024-03-02T07:17:36;123.73;;;63.03;;
14209;SDS011;7188;56.070;12.698;2024-03-02T07:20:02;121.33;;;60.97;;
14209;SDS011;7188;56.070;12.698;2024-03-02T07:22:29;112.70;;;61.07;;
14209;SDS011;7188;56.070;12.698;2024-03-02T07:24:54;109.10;;;58.13;;
14209;SDS011;7188;56.070;12.698;2024-03-02T07:27:20;110.07;;;61.33;;
14209;SDS011;7188;56.070;12.698;2024-03-02T07:29:46;109.40;;;61.03;;
14209;SDS011;7188;56.070;12.698;2024-03-02T07:32:12;101.37;;;56.73;;
14209;SDS011;7188;56.070;12.698;2024-03-02T07:34:38;102.30;;;57.67;;
14209;SDS011;7188;56.070;12.698;2024-03-02T07:37:03;99.80;;;54.57;;
14209;SDS011;7188;56.070;12.698;2024-03-02T07:39:30;92.70;;;52.67;;
14209;SDS011;7188;56.070;12.698;2024-03-02T07:41:55;92.73;;;55.00;;
14209;SDS011;7188;56.070;12.698;2024-03-02T07:44:21;92.30;;;53.03;;
14209;SDS011;7188;56.070;12.698;2024-03-02T07:46:48;88.20;;;52.60;;
14209;SDS011;7188;56.070;12.698;2024-03-02T07:49:16;84.87;;;50.90;;
14209;SDS011;7188;56.070;12.698;2024-03-02T07:51:43;73.23;;;48.33;;
14209;SDS011;7188;56.070;12.698;2024-03-02T07:54:09;77.77;;;49.77;;
14209;SDS011;7188;56.070;12.698;2024-03-02T07:56:35;77.33;;;47.87;;
14209;SDS011;7188;56.070;12.698;2024-03-02T08:02:23;78.63;;;47.27;;
14209;SDS011;7188;56.070;12.698;2024-03-02T08:04:49;72.97;;;46.20;;
14209;SDS011;7188;56.070;12.698;2024-03-02T08:07:15;71.23;;;45.47;;
14209;SDS011;7188;56.070;12.698;2024-03-02T08:09:40;63.30;;;42.90;;
14209;SDS011;7188;56.070;12.698;2024-03-02T08:12:06;72.97;;;45.63;;
14209;SDS011;7188;56.070;12.698;2024-03-02T08:14:32;69.00;;;45.97;;
14209;SDS011;7188;56.070;12.698;2024-03-02T08:16:57;56.30;;;40.80;;
14209;SDS011;7188;56.070;12.698;2024-03-02T08:19:23;61.50;;;41.97;;
14209;SDS011;7188;56.070;12.698;2024-03-02T08:21:49;56.87;;;40.90;;
14209;SDS011;7188;56.070;12.698;2024-03-02T08:24:14;57.87;;;41.03;;
14209;SDS011;7188;56.070;12.698;2024-03-02T08:26:40;53.77;;;40.00;;
14209;SDS011;7188;56.070;12.698;2024-03-02T08:29:06;52.13;;;39.90;;
14209;SDS011;7188;56.070;12.698;2024-03-02T08:31:31;52.93;;;39.13;;
14209;SDS011;7188;56.070;12.698;2024-03-02T08:33:57;53.30;;;38.23;;
14209;SDS011;7188;56.070;12.698;2024-03-02T08:36:23;47.83;;;36.67;;
14209;SDS011;7188;56.070;12.698;2024-03-02T08:38:49;50.40;;;37.90;;
14209;SDS011;7188;56.070;12.698;2024-03-02T08:41:15;52.50;;;37.53;;
14209;SDS011;7188;56.070;12.698;2024-03-02T08:43:41;50.90;;;36.87;;
14209;SDS011;7188;56.070;12.698;2024-03-02T08:46:07;47.97;;;37.13;;
14209;SDS011;7188;56.070;12.698;2024-03-02T08:48:33;47.13;;;35.47;;
14209;SDS011;7188;56.070;12.698;2024-03-02T08:50:59;45.77;;;34.53;;
14209;SDS011;7188;56.070;12.698;2024-03-02T08:53:25;49.53;;;34.43;;
14209;SDS011;7188;56.070;12.698;2024-03-02T08:55:51;45.63;;;34.93;;
14209;SDS011;7188;56.070;12.698;2024-03-02T08:58:17;48.43;;;35.80;;
14209;SDS011;7188;56.070;12.698;2024-03-02T09:00:43;45.93;;;34.90;;
14209;SDS011;7188;56.070;12.698;2024-03-02T09:03:09;46.57;;;33.17;;
14209;SDS011;7188;56.070;12.698;2024-03-02T09:05:35;45.40;;;34.03;;
14209;SDS011;7188;56.070;12.698;2024-03-02T09:08:00;46.27;;;35.10;;
14209;SDS011;7188;56.070;12.698;2024-03-02T09:10:28;44.10;;;33.67;;
14209;SDS011;7188;56.070;12.698;2024-03-02T09:12:54;47.40;;;34.13;;
14209;SDS011;7188;56.070;12.698;2024-03-02T09:15:19;45.67;;;34.20;;
14209;SDS011;7188;56.070;12.698;2024-03-02T09:17:45;46.37;;;32.47;;
14209;SDS011;7188;56.070;12.698;2024-03-02T09:20:11;50.40;;;35.40;;
14209;SDS011;7188;56.070;12.698;2024-03-02T09:22:36;46.57;;;33.67;;
14209;SDS011;7188;56.070;12.698;2024-03-02T09:25:02;45.57;;;32.13;;
14209;SDS011;7188;56.070;12.698;2024-03-02T09:27:28;48.43;;;33.77;;
14209;SDS011;7188;56.070;12.698;2024-03-02T09:29:54;50.37;;;34.63;;
14209;SDS011;7188;56.070;12.698;2024-03-02T09:32:19;46.07;;;33.63;;
14209;SDS011;7188;56.070;12.698;2024-03-02T09:34:45;51.43;;;35.23;;
14209;SDS011;7188;56.070;12.698;2024-03-02T09:37:28;49.37;;;33.90;;
14209;SDS011;7188;56.070;12.698;2024-03-02T09:39:54;50.67;;;34.23;;
14209;SDS011;7188;56.070;12.698;2024-03-02T09:42:20;45.37;;;31.83;;
14209;SDS011;7188;56.070;12.698;2024-03-02T09:44:46;46.07;;;31.70;;
14209;SDS011;7188;56.070;12.698;2024-03-02T09:47:13;41.47;;;28.93;;
14209;SDS011;7188;56.070;12.698;2024-03-02T09:49:39;44.47;;;31.87;;
14209;SDS011;7188;56.070;12.698;2024-03-02T09:52:05;39.50;;;29.87;;
14209;SDS011;7188;56.070;12.698;2024-03-02T09:54:31;43.40;;;29.97;;
14209;SDS011;7188;56.070;12.698;2024-03-02T09:56:57;43.73;;;29.70;;
14209;SDS011;7188;56.070;12.698;2024-03-02T09:59:23;40.07;;;29.97;;
14209;SDS011;7188;56.070;12.698;2024-03-02T10:01:55;34.37;;;25.40;;
14209;SDS011;7188;56.070;12.698;2024-03-02T10:04:28;37.10;;;27.30;;
14209;SDS011;7188;56.070;12.698;2024-03-02T10:09:36;36.83;;;27.37;;
14209;SDS011;7188;56.070;12.698;2024-03-02T10:12:05;36.40;;;27.90;;
14209;SDS011;7188;56.070;12.698;2024-03-02T10:14:32;36.43;;;27.90;;
14209;SDS011;7188;56.070;12.698;2024-03-02T10:17:05;37.63;;;27.70;;
14209;SDS011;7188;56.070;12.698;2024-03-02T10:19:32;38.83;;;28.37;;
14209;SDS011;7188;56.070;12.698;2024-03-02T10:21:59;41.87;;;30.10;;
14209;SDS011;7188;56.070;12.698;2024-03-02T10:24:25;40.83;;;28.87;;
14209;SDS011;7188;56.070;12.698;2024-03-02T10:26:52;43.13;;;30.10;;
14209;SDS011;7188;56.070;12.698;2024-03-02T10:29:18;39.60;;;29.17;;
14209;SDS011;7188;56.070;12.698;2024-03-02T10:31:44;42.27;;;29.50;;
14209;SDS011;7188;56.070;12.698;2024-03-02T10:34:11;47.47;;;30.23;;
14209;SDS011;7188;56.070;12.698;2024-03-02T10:36:46;42.97;;;30.03;;
14209;SDS011;7188;56.070;12.698;2024-03-02T10:39:13;45.30;;;31.33;;
14209;SDS011;7188;56.070;12.698;2024-03-02T10:41:39;44.03;;;30.10;;
14209;SDS011;7188;56.070;12.698;2024-03-02T10:44:06;44.17;;;30.20;;
14209;SDS011;7188;56.070;12.698;2024-03-02T10:46:33;45.87;;;30.93;;
14209;SDS011;7188;56.070;12.698;2024-03-02T10:49:01;43.10;;;29.83;;
14209;SDS011;7188;56.070;12.698;2024-03-02T10:51:28;49.43;;;31.10;;
14209;SDS011;7188;56.070;12.698;2024-03-02T10:53:56;45.93;;;31.73;;
14209;SDS011;7188;56.070;12.698;2024-03-02T11:01:29;58.27;;;34.40;;
14209;SDS011;7188;56.070;12.698;2024-03-02T11:03:57;51.90;;;32.83;;
14209;SDS011;7188;56.070;12.698;2024-03-02T11:06:23;55.13;;;34.10;;
14209;SDS011;7188;56.070;12.698;2024-03-02T11:11:39;67.37;;;38.80;;
14209;SDS011;7188;56.070;12.698;2024-03-02T11:14:09;75.43;;;42.23;;
14209;SDS011;7188;56.070;12.698;2024-03-02T11:16:38;77.23;;;42.30;;
14209;SDS011;7188;56.070;12.698;2024-03-02T11:19:07;83.97;;;44.50;;
14209;SDS011;7188;56.070;12.698;2024-03-02T11:21:35;75.87;;;42.67;;
14209;SDS011;7188;56.070;12.698;2024-03-02T11:26:46;78.37;;;41.50;;
14209;SDS011;7188;56.070;12.698;2024-03-02T11:29:55;80.87;;;44.50;;
14209;SDS011;7188;56.070;12.698;2024-03-02T11:32:02;86.57;;;44.80;;
14209;SDS011;7188;56.070;12.698;2024-03-02T11:34:31;84.23;;;45.17;;
14209;SDS011;7188;56.070;12.698;2024-03-02T11:36:59;87.23;;;45.50;;
14209;SDS011;7188;56.070;12.698;2024-03-02T11:39:28;81.70;;;45.63;;
14209;SDS011;7188;56.070;12.698;2024-03-02T11:41:54;82.53;;;46.37;;
14209;SDS011;7188;56.070;12.698;2024-03-02T11:44:21;89.57;;;45.37;;
14209;SDS011;7188;56.070;12.698;2024-03-02T11:47:00;82.30;;;44.60;;
14209;SDS011;7188;56.070;12.698;2024-03-02T11:52:06;92.03;;;46.47;;
14209;SDS011;7188;56.070;12.698;2024-03-02T11:54:33;88.57;;;44.93;;
14209;SDS011;7188;56.070;12.698;2024-03-02T11:57:04;83.63;;;44.70;;
14209;SDS011;7188;56.070;12.698;2024-03-02T11:59:31;93.47;;;48.47;;
14209;SDS011;7188;56.070;12.698;2024-03-02T12:01:57;97.07;;;47.83;;
14209;SDS011;7188;56.070;12.698;2024-03-02T12:04:24;88.17;;;47.40;;
14209;SDS011;7188;56.070;12.698;2024-03-02T12:07:07;99.43;;;48.90;;
14209;SDS011;7188;56.070;12.698;2024-03-02T12:09:33;94.67;;;47.93;;
14209;SDS011;7188;56.070;12.698;2024-03-02T12:12:06;95.60;;;49.40;;
14209;SDS011;7188;56.070;12.698;2024-03-02T12:14:34;92.43;;;48.50;;
14209;SDS011;7188;56.070;12.698;2024-03-02T12:17:01;92.63;;;47.50;;
14209;SDS011;7188;56.070;12.698;2024-03-02T12:19:27;89.57;;;46.93;;
14209;SDS011;7188;56.070;12.698;2024-03-02T12:21:54;87.40;;;46.70;;
14209;SDS011;7188;56.070;12.698;2024-03-02T12:24:23;87.10;;;47.27;;
14209;SDS011;7188;56.070;12.698;2024-03-02T12:26:51;84.13;;;45.50;;
14209;SDS011;7188;56.070;12.698;2024-03-02T12:29:18;80.23;;;44.67;;
14209;SDS011;7188;56.070;12.698;2024-03-02T12:31:45;87.63;;;44.10;;
14209;SDS011;7188;56.070;12.698;2024-03-02T12:34:17;92.00;;;46.40;;
14209;SDS011;7188;56.070;12.698;2024-03-02T12:36:43;90.20;;;45.80;;
14209;SDS011;7188;56.070;12.698;2024-03-02T12:39:12;93.77;;;45.87;;
14209;SDS011;7188;56.070;12.698;2024-03-02T12:41:39;92.40;;;45.23;;
14209;SDS011;7188;56.070;12.698;2024-03-02T12:44:05;99.03;;;47.90;;
14209;SDS011;7188;56.070;12.698;2024-03-02T12:46:31;79.23;;;40.67;;
14209;SDS011;7188;56.070;12.698;2024-03-02T12:48:57;90.80;;;44.87;;
14209;SDS011;7188;56.070;12.698;2024-03-02T12:51:42;85.00;;;41.93;;
14209;SDS011;7188;56.070;12.698;2024-03-02T12:54:08;87.67;;;44.93;;
14209;SDS011;7188;56.070;12.698;2024-03-02T12:56:36;81.90;;;40.73;;
14209;SDS011;7188;56.070;12.698;2024-03-02T12:59:07;81.33;;;41.77;;
14209;SDS011;7188;56.070;12.698;2024-03-02T13:01:35;82.47;;;43.57;;
14209;SDS011;7188;56.070;12.698;2024-03-02T13:04:01;80.43;;;39.97;;
14209;SDS011;7188;56.070;12.698;2024-03-02T13:06:28;76.77;;;40.67;;
14209;SDS011;7188;56.070;12.698;2024-03-02T13:08:54;77.07;;;39.77;;
14209;SDS011;7188;56.070;12.698;2024-03-02T13:11:20;73.97;;;39.67;;
14209;SDS011;7188;56.070;12.698;2024-03-02T13:13:48;73.17;;;40.80;;
14209;SDS011;7188;56.070;12.698;2024-03-02T13:16:14;74.87;;;39.27;;
14209;SDS011;7188;56.070;12.698;2024-03-02T13:18:41;74.97;;;40.17;;
14209;SDS011;7188;56.070;12.698;2024-03-02T13:21:09;73.17;;;38.33;;
14209;SDS011;7188;56.070;12.698;2024-03-02T13:23:34;75.07;;;40.13;;
14209;SDS011;7188;56.070;12.698;2024-03-02T13:26:00;77.97;;;39.87;;
14209;SDS011;7188;56.070;12.698;2024-03-02T13:28:26;73.53;;;37.70;;
14209;SDS011;7188;56.070;12.698;2024-03-02T13:30:52;76.93;;;39.50;;
14209;SDS011;7188;56.070;12.698;2024-03-02T13:33:18;82.67;;;39.63;;
14209;SDS011;7188;56.070;12.698;2024-03-02T13:35:50;76.80;;;39.20;;
14209;SDS011;7188;56.070;12.698;2024-03-02T13:38:17;83.37;;;40.93;;
14209;SDS011;7188;56.070;12.698;2024-03-02T13:40:44;78.37;;;39.07;;
14209;SDS011;7188;56.070;12.698;2024-03-02T13:43:09;81.37;;;39.00;;
14209;SDS011;7188;56.070;12.698;2024-03-02T13:45:36;83.67;;;39.70;;
14209;SDS011;7188;56.070;12.698;2024-03-02T13:51:16;88.37;;;39.53;;
14209;SDS011;7188;56.070;12.698;2024-03-02T13:53:42;78.90;;;38.97;;
14209;SDS011;7188;56.070;12.698;2024-03-02T13:56:07;89.67;;;40.03;;
14209;SDS011;7188;56.070;12.698;2024-03-02T13:58:39;84.50;;;41.87;;
14209;SDS011;7188;56.070;12.698;2024-03-02T14:01:06;78.03;;;39.50;;
14209;SDS011;7188;56.070;12.698;2024-03-02T14:03:31;82.17;;;40.53;;
14209;SDS011;7188;56.070;12.698;2024-03-02T14:05:57;77.80;;;39.80;;
14209;SDS011;7188;56.070;12.698;2024-03-02T14:08:23;74.10;;;37.97;;
14209;SDS011;7188;56.070;12.698;2024-03-02T14:10:49;79.70;;;40.47;;
14209;SDS011;7188;56.070;12.698;2024-03-02T14:13:14;79.43;;;39.40;;
14209;SDS011;7188;56.070;12.698;2024-03-02T14:15:41;82.37;;;39.73;;
14209;SDS011;7188;56.070;12.698;2024-03-02T14:18:07;79.67;;;40.00;;
14209;SDS011;7188;56.070;12.698;2024-03-02T14:20:35;75.63;;;36.83;;
14209;SDS011;7188;56.070;12.698;2024-03-02T14:23:00;77.90;;;37.93;;
14209;SDS011;7188;56.070;12.698;2024-03-02T14:25:27;83.00;;;39.53;;
14209;SDS011;7188;56.070;12.698;2024-03-02T14:27:56;77.97;;;38.43;;
14209;SDS011;7188;56.070;12.698;2024-03-02T14:30:22;87.17;;;40.37;;
14209;SDS011;7188;56.070;12.698;2024-03-02T14:32:48;82.30;;;40.77;;
14209;SDS011;7188;56.070;12.698;2024-03-02T14:35:14;81.10;;;38.40;;
14209;SDS011;7188;56.070;12.698;2024-03-02T14:37:40;84.73;;;42.57;;
14209;SDS011;7188;56.070;12.698;2024-03-02T14:40:06;85.10;;;41.27;;
14209;SDS011;7188;56.070;12.698;2024-03-02T14:42:34;96.53;;;45.97;;
14209;SDS011;7188;56.070;12.698;2024-03-02T14:45:00;97.10;;;44.53;;
14209;SDS011;7188;56.070;12.698;2024-03-02T14:47:27;94.50;;;44.87;;
14209;SDS011;7188;56.070;12.698;2024-03-02T14:49:53;106.40;;;46.53;;
14209;SDS011;7188;56.070;12.698;2024-03-02T14:52:19;98.90;;;45.87;;
14209;SDS011;7188;56.070;12.698;2024-03-02T14:54:44;124.63;;;48.53;;
14209;SDS011;7188;56.070;12.698;2024-03-02T14:57:11;100.07;;;46.87;;